Time;durP1;ratioP1;P1;durP2;ratioP2;P2;SDS_P1;SDS_P2;PMS_P1;PMS_P2;Temp;Humidity;BMP_temperature;BMP_pressure;BME280_temperature;BME280_humidity;BME280_pressure;Samples;Min_cycle;Max_cycle;Signal;HPM_P1;HPM_P2
2021/08/02 00:00:22;;;;;;;;;;;;;;;31.72;36.26;99096.97;5091863;28;20007;-36
2021/08/02 00:02:51;;;;;;;;;;;;;;;31.79;35.87;99108.13;5091843;28;19947;-37
2021/08/02 00:05:17;;;;;;;;;;;;;;;32.02;35.31;99107.44;5090419;28;19951;-36
2021/08/02 00:07:43;;;;;;;;;;;;;;;32.33;34.69;99104.50;5090632;28;19970;-36
2021/08/02 00:10:12;;;;;;;;;;;;;;;32.26;35.12;99111.84;5090471;28;19916;-36
2021/08/02 00:12:47;;;;;;;;;;;;;;;31.91;35.46;99107.19;5091748;28;20011;-36
2021/08/02 00:15:13;;;;;;;;;;;;;;;32.13;35.23;99108.44;5091757;28;19912;-36
2021/08/02 00:17:40;;;;;;;;;;;;;;;32.25;34.75;99113.81;5092030;28;19928;-36
2021/08/02 00:20:06;;;;;;;;;;;;;;;31.93;35.40;99097.44;5091281;28;19928;-35
2021/08/02 00:22:31;;;;;;;;;;;;;;;31.74;35.97;99111.19;5091898;28;20406;-36
2021/08/02 00:24:56;;;;;;;;;;;;;;;31.80;35.69;99109.72;5091633;28;20330;-36
2021/08/02 00:27:22;;;;;;;;;;;;;;;31.90;35.62;99113.84;5090410;28;19912;-36
2021/08/02 00:29:47;;;;;;;;;;;;;;;32.12;35.12;99115.09;5073764;28;20037;-36
2021/08/02 00:32:12;;;;;;;;;;;;;;;31.58;36.12;99116.72;5091995;28;19916;-36
2021/08/02 00:34:38;;;;;;;;;;;;;;;31.68;35.94;99120.84;5090126;28;19916;-35
2021/08/02 00:37:03;;;;;;;;;;;;;;;32.05;35.48;99118.50;5091500;28;19920;-36
2021/08/02 00:39:31;;;;;;;;;;;;;;;32.14;35.23;99113.59;5091818;28;19912;-36
2021/08/02 00:42:06;;;;;;;;;;;;;;;31.86;35.50;99108.28;5091544;28;20015;-36
2021/08/02 00:44:40;;;;;;;;;;;;;;;31.71;35.47;99106.38;5091326;28;19912;-36
2021/08/02 00:47:09;;;;;;;;;;;;;;;31.87;35.60;99112.63;5091856;28;19912;-36
2021/08/02 00:49:34;;;;;;;;;;;;;;;32.16;35.10;99115.97;5091203;28;19935;-36
2021/08/02 00:52:00;;;;;;;;;;;;;;;31.50;36.27;99117.72;5091414;28;19934;-36
2021/08/02 00:54:26;;;;;;;;;;;;;;;31.65;36.09;99105.88;5091013;28;19980;-36
2021/08/02 00:56:54;;;;;;;;;;;;;;;31.67;35.91;99105.53;5091342;28;19912;-35
2021/08/02 00:59:19;;;;;;;;;;;;;;;31.95;35.33;99108.06;5091100;28;20398;-37
2021/08/02 01:01:45;;;;;;;;;;;;;;;31.68;36.00;99115.34;5091320;28;19916;-37
2021/08/02 01:04:10;;;;;;;;;;;;;;;31.64;36.09;99123.53;5090166;28;19912;-36
2021/08/02 01:06:35;;;;;;;;;;;;;;;31.73;35.45;99107.63;5091049;28;19912;-36
2021/08/02 01:09:01;;;;;;;;;;;;;;;31.26;36.09;99113.22;5090013;28;19912;-36
2021/08/02 01:11:26;;;;;;;;;;;;;;;31.15;36.25;99119.28;5091264;28;20333;-36
2021/08/02 01:13:52;;;;;;;;;;;;;;;31.16;36.52;99120.84;5091182;28;20346;-36
2021/08/02 01:16:17;;;;;;;;;;;;;;;31.49;35.97;99124.38;5091429;28;19916;-36
2021/08/02 01:18:42;;;;;;;;;;;;;;;31.55;35.59;99107.25;5089920;28;20434;-36
2021/08/02 01:21:08;;;;;;;;;;;;;;;31.52;36.04;99129.94;5089399;28;19989;-36
2021/08/02 01:23:34;;;;;;;;;;;;;;;31.41;35.96;99128.09;5090907;28;19973;-36
2021/08/02 01:25:59;;;;;;;;;;;;;;;31.56;35.36;99125.31;5089586;28;19912;-37
2021/08/02 01:28:24;;;;;;;;;;;;;;;31.85;34.42;99117.66;5090717;28;19919;-37
2021/08/02 01:30:52;;;;;;;;;;;;;;;31.66;34.75;99123.16;5090920;28;19943;-37
2021/08/02 01:33:19;;;;;;;;;;;;;;;31.40;35.00;99124.56;5091102;28;19922;-37
2021/08/02 01:35:44;;;;;;;;;;;;;;;31.55;34.85;99129.25;5091061;28;19919;-36
2021/08/02 01:38:12;;;;;;;;;;;;;;;31.76;34.46;99126.16;5090945;28;19916;-36
2021/08/02 01:40:37;;;;;;;;;;;;;;;31.75;34.55;99129.25;5090768;28;19912;-36
2021/08/02 01:43:05;;;;;;;;;;;;;;;31.31;35.29;99134.94;5096630;28;19918;-36
2021/08/02 01:45:30;;;;;;;;;;;;;;;31.14;35.45;99139.66;5111174;28;20295;-36
2021/08/02 01:47:56;;;;;;;;;;;;;;;31.48;35.28;99142.81;5109901;28;19912;-36
2021/08/02 01:50:32;;;;;;;;;;;;;;;31.80;34.40;99141.94;5111194;28;19912;-36
2021/08/02 01:53:06;;;;;;;;;;;;;;;31.18;35.67;99136.97;5111599;28;19958;-36
2021/08/02 01:55:31;;;;;;;;;;;;;;;31.03;36.06;99133.09;5115242;28;20319;-37
2021/08/02 01:57:57;;;;;;;;;;;;;;;31.18;35.93;99131.50;5098850;28;20380;-36
2021/08/02 02:00:23;;;;;;;;;;;;;;;31.34;35.77;99136.97;5094796;28;19912;-36
2021/08/02 02:02:56;;;;;;;;;;;;;;;30.92;36.68;99146.59;5094447;28;19924;-36
2021/08/02 02:05:21;;;;;;;;;;;;;;;31.10;36.38;99143.47;5093325;28;19920;-37
2021/08/02 02:07:49;;;;;;;;;;;;;;;30.82;36.90;99149.81;5094583;28;19912;-37
2021/08/02 02:10:15;;;;;;;;;;;;;;;31.16;36.01;99139.28;5094225;28;19952;-35
2021/08/02 02:12:43;;;;;;;;;;;;;;;31.36;35.47;99135.47;5092909;28;19919;-37
2021/08/02 02:15:09;;;;;;;;;;;;;;;30.90;36.45;99140.66;5094125;28;19985;-37
2021/08/02 02:17:35;;;;;;;;;;;;;;;30.57;37.06;99140.94;5094228;28;20302;-37
2021/08/02 02:20:00;;;;;;;;;;;;;;;30.66;37.26;99147.06;5092813;28;19924;-37
2021/08/02 02:22:25;;;;;;;;;;;;;;;30.95;36.70;99131.34;5093164;28;19916;-37
2021/08/02 02:24:51;;;;;;;;;;;;;;;30.94;36.58;99130.53;5092823;28;19954;-37
2021/08/02 02:27:16;;;;;;;;;;;;;;;30.75;37.14;99133.97;5094096;28;20063;-36
2021/08/02 02:29:41;;;;;;;;;;;;;;;30.75;36.88;99138.66;5094025;28;20295;-36
2021/08/02 02:32:07;;;;;;;;;;;;;;;30.78;37.33;99140.69;5092768;28;19912;-36
2021/08/02 02:34:33;;;;;;;;;;;;;;;30.87;37.18;99129.53;5093708;28;20295;-36
2021/08/02 02:36:58;;;;;;;;;;;;;;;30.50;37.56;99129.75;5092443;28;19923;-36
2021/08/02 02:39:24;;;;;;;;;;;;;;;30.16;38.71;99130.03;5092704;28;20003;-36
2021/08/02 02:41:49;;;;;;;;;;;;;;;30.19;38.54;99131.25;5094144;28;20025;-36
2021/08/02 02:44:15;;;;;;;;;;;;;;;30.65;37.47;99134.47;5109934;28;20394;-37
2021/08/02 02:46:40;;;;;;;;;;;;;;;30.45;37.94;99127.28;5114192;28;19911;-36
2021/08/02 02:49:05;;;;;;;;;;;;;;;30.02;38.47;99129.63;5112896;28;19911;-36
2021/08/02 02:51:30;;;;;;;;;;;;;;;29.99;38.91;99136.59;5113579;28;19912;-36
2021/08/02 02:53:56;;;;;;;;;;;;;;;30.01;39.45;99142.53;5112815;28;19916;-36
2021/08/02 02:56:21;;;;;;;;;;;;;;;30.36;38.30;99138.41;5110994;28;20010;-36
2021/08/02 02:58:47;;;;;;;;;;;;;;;30.24;38.69;99136.50;5093840;28;19923;-36
2021/08/02 03:01:12;;;;;;;;;;;;;;;29.89;39.08;99122.56;5092140;28;19912;-36
2021/08/02 03:03:38;;;;;;;;;;;;;;;29.61;39.07;99107.66;5093381;28;20441;-36
2021/08/02 03:06:06;;;;;;;;;;;;;;;29.85;38.92;99118.94;5093267;28;19912;-36
2021/08/02 03:08:32;;;;;;;;;;;;;;;30.29;38.46;99128.03;5093300;28;19913;-36
2021/08/02 03:10:57;;;;;;;;;;;;;;;29.83;39.58;99133.00;5092867;28;19916;-36
2021/08/02 03:13:23;;;;;;;;;;;;;;;29.73;39.64;99133.47;5091229;28;19927;-36
2021/08/02 03:15:48;;;;;;;;;;;;;;;29.79;39.12;99129.34;5092849;28;19915;-36
2021/08/02 03:18:13;;;;;;;;;;;;;;;29.89;38.74;99128.06;5093273;28;20346;-37
2021/08/02 03:20:39;;;;;;;;;;;;;;;30.33;38.18;99131.69;5091251;28;19924;-35
2021/08/02 03:23:08;;;;;;;;;;;;;;;29.50;39.91;99138.63;5092917;28;20403;-35
2021/08/02 03:25:37;;;;;;;;;;;;;;;29.21;40.63;99138.53;5074377;28;19958;-36
2021/08/02 03:28:05;;;;;;;;;;;;;;;28.28;43.01;99127.16;5091664;28;20372;-36
2021/08/02 03:30:31;;;;;;;;;;;;;;;28.82;41.69;99140.75;5091317;28;19983;-36
2021/08/02 03:32:56;;;;;;;;;;;;;;;29.18;41.03;99141.16;5091337;28;20076;-36
2021/08/02 03:35:21;;;;;;;;;;;;;;;27.50;43.92;99096.56;5090950;28;19939;-36
2021/08/02 03:37:46;;;;;;;;;;;;;;;27.83;43.98;99145.00;5090814;28;19916;-36
2021/08/02 03:40:15;;;;;;;;;;;;;;;28.10;43.18;99139.38;5090604;28;20067;-36
2021/08/02 03:42:41;;;;;;;;;;;;;;;28.67;41.91;99146.88;5092348;28;19916;-35
2021/08/02 03:45:06;;;;;;;;;;;;;;;28.71;41.47;99150.56;5090984;28;19912;-36
2021/08/02 03:47:32;;;;;;;;;;;;;;;28.22;39.67;99151.19;5092042;28;19913;-36
2021/08/02 03:49:57;;;;;;;;;;;;;;;28.45;42.14;99162.53;5092277;28;19918;-35
2021/08/02 03:52:22;;;;;;;;;;;;;;;28.72;41.96;99167.78;5090603;28;19935;-37
2021/08/02 03:54:47;;;;;;;;;;;;;;;29.23;40.05;99152.69;5091437;28;20288;-37
2021/08/02 03:57:13;;;;;;;;;;;;;;;29.11;40.65;99158.16;5091069;28;19919;-36
2021/08/02 03:59:38;;;;;;;;;;;;;;;28.91;40.49;99156.31;5087610;28;20372;-36
2021/08/02 04:02:03;;;;;;;;;;;;;;;28.86;40.87;99157.31;5070666;28;19912;-36
2021/08/02 04:04:29;;;;;;;;;;;;;;;29.09;40.46;99152.19;5069684;28;19912;-36
2021/08/02 04:06:54;;;;;;;;;;;;;;;29.66;39.80;99152.41;5078393;28;19919;-35
2021/08/02 04:09:19;;;;;;;;;;;;;;;29.50;40.25;99155.09;5091146;28;19912;-37
2021/08/02 04:11:45;;;;;;;;;;;;;;;29.54;38.80;99151.28;5091080;28;20284;-37
2021/08/02 04:14:10;;;;;;;;;;;;;;;29.86;38.28;99150.72;5090904;28;19912;-37
2021/08/02 04:16:36;;;;;;;;;;;;;;;30.09;38.31;99150.97;5090443;28;20020;-37
2021/08/02 04:19:01;;;;;;;;;;;;;;;30.71;37.32;99146.00;5091001;28;19920;-37
2021/08/02 04:21:27;;;;;;;;;;;;;;;30.51;38.11;99143.13;5091208;28;20295;-37
2021/08/02 04:23:54;;;;;;;;;;;;;;;30.55;38.05;99152.25;5091377;28;19916;-37
2021/08/02 04:26:19;;;;;;;;;;;;;;;30.83;38.12;99156.13;5090757;28;19923;-37
2021/08/02 04:28:44;;;;;;;;;;;;;;;31.36;37.36;99151.94;5090616;28;19912;-37
2021/08/02 04:31:10;;;;;;;;;;;;;;;31.53;37.20;99150.78;5090247;28;20018;-35
2021/08/02 04:33:35;;;;;;;;;;;;;;;30.96;37.53;99150.22;5090654;28;20017;-37
2021/08/02 04:36:00;;;;;;;;;;;;;;;31.27;36.99;99137.59;5091288;28;19981;-37
2021/08/02 04:38:26;;;;;;;;;;;;;;;31.31;36.95;99137.69;5090660;28;20477;-37
2021/08/02 04:40:51;;;;;;;;;;;;;;;31.98;36.01;99137.59;5090914;28;19916;-37
2021/08/02 04:43:16;;;;;;;;;;;;;;;32.08;35.96;99145.31;5090061;28;20339;-37
2021/08/02 04:45:42;;;;;;;;;;;;;;;32.28;35.88;99131.53;5084240;28;19924;-36
2021/08/02 04:48:07;;;;;;;;;;;;;;;32.52;34.78;99146.94;5074514;28;19916;-37
2021/08/02 04:50:32;;;;;;;;;;;;;;;33.24;33.48;99149.00;5069712;28;19917;-35
2021/08/02 04:52:57;;;;;;;;;;;;;;;32.90;33.86;99146.06;5069634;28;19924;-36
2021/08/02 04:55:23;;;;;;;;;;;;;;;32.98;34.02;99146.19;5082461;28;20644;-36
2021/08/02 04:57:48;;;;;;;;;;;;;;;33.40;33.27;99146.06;5090372;28;19916;-36
2021/08/02 05:00:13;;;;;;;;;;;;;;;33.55;32.57;99144.31;5090578;28;20405;-36
2021/08/02 05:02:39;;;;;;;;;;;;;;;33.52;32.77;99144.25;5089128;28;19916;-36
2021/08/02 05:05:04;;;;;;;;;;;;;;;33.06;33.73;99145.13;5089330;28;20540;-36
2021/08/02 05:07:29;;;;;;;;;;;;;;;33.26;33.91;99154.91;5088938;28;20546;-37
2021/08/02 05:09:55;;;;;;;;;;;;;;;33.62;33.02;99151.88;5089122;28;19960;-37
2021/08/02 05:12:20;;;;;;;;;;;;;;;33.95;32.53;99155.88;5089252;28;19912;-37
2021/08/02 05:14:45;;;;;;;;;;;;;;;33.64;33.20;99160.59;5089153;28;20552;-37
2021/08/02 05:17:10;;;;;;;;;;;;;;;33.92;32.98;99176.75;5089767;28;19916;-37
2021/08/02 05:19:36;;;;;;;;;;;;;;;33.83;32.48;99171.53;5090005;28;20490;-37
2021/08/02 05:22:01;;;;;;;;;;;;;;;34.01;32.59;99182.78;5089840;28;19912;-37
2021/08/02 05:24:26;;;;;;;;;;;;;;;34.11;32.33;99175.00;5090252;28;19935;-37
2021/08/02 05:26:52;;;;;;;;;;;;;;;34.07;32.13;99177.72;5090104;28;19912;-37
2021/08/02 05:29:17;;;;;;;;;;;;;;;34.58;31.70;99182.66;5092079;28;20476;-37
2021/08/02 05:31:42;;;;;;;;;;;;;;;35.39;30.96;99186.56;5094297;28;20431;-37
2021/08/02 05:34:08;;;;;;;;;;;;;;;34.77;30.67;99186.44;5094321;28;20013;-37
2021/08/02 05:36:33;;;;;;;;;;;;;;;34.73;30.71;99188.34;5094164;28;19911;-37
2021/08/02 05:38:58;;;;;;;;;;;;;;;34.52;31.17;99191.66;5093971;28;20218;-38
2021/08/02 05:41:23;;;;;;;;;;;;;;;34.62;31.39;99204.81;5094165;28;19924;-38
2021/08/02 05:43:49;;;;;;;;;;;;;;;35.28;31.00;99207.03;5093860;28;19938;-38
2021/08/02 05:46:14;;;;;;;;;;;;;;;35.52;30.49;99202.88;5094303;28;20010;-38
2021/08/02 05:48:39;;;;;;;;;;;;;;;36.04;29.78;99195.25;5091870;28;19965;-37
2021/08/02 05:51:05;;;;;;;;;;;;;;;36.58;28.93;99198.25;5093925;28;20015;-36
2021/08/02 05:53:30;;;;;;;;;;;;;;;36.75;28.55;99194.75;5093896;28;19912;-37
2021/08/02 05:55:55;;;;;;;;;;;;;;;36.52;28.48;99194.25;5094111;28;19999;-38
2021/08/02 05:58:20;;;;;;;;;;;;;;;36.43;28.87;99191.88;5093939;28;19923;-38
2021/08/02 06:00:46;;;;;;;;;;;;;;;36.75;28.43;99186.44;5094189;28;20022;-38
2021/08/02 06:03:11;;;;;;;;;;;;;;;37.35;27.76;99184.06;5093821;28;19912;-38
2021/08/02 06:05:36;;;;;;;;;;;;;;;36.76;28.08;99187.22;5094008;28;19912;-37
2021/08/02 06:08:01;;;;;;;;;;;;;;;37.10;27.80;99186.84;5093684;28;20310;-37
2021/08/02 06:10:27;;;;;;;;;;;;;;;37.74;27.19;99184.03;5093454;28;20237;-37
2021/08/02 06:12:52;;;;;;;;;;;;;;;38.45;26.59;99184.94;5093341;28;19996;-37
2021/08/02 06:15:17;;;;;;;;;;;;;;;37.81;26.87;99183.19;5093479;28;20383;-36
2021/08/02 06:17:43;;;;;;;;;;;;;;;37.45;27.27;99179.69;5091818;28;19920;-37
2021/08/02 06:20:08;;;;;;;;;;;;;;;37.13;27.75;99186.06;5093007;28;20013;-36
2021/08/02 06:22:34;;;;;;;;;;;;;;;37.27;27.56;99176.97;5093250;28;19912;-37
2021/08/02 06:24:59;;;;;;;;;;;;;;;37.60;27.02;99169.38;5093673;28;19969;-37
2021/08/02 06:27:29;;;;;;;;;;;;;;;37.34;27.41;99163.88;5092570;28;20332;-37
2021/08/02 06:29:55;;;;;;;;;;;;;;;37.86;26.32;99176.47;5093323;28;20249;-37
2021/08/02 06:32:20;;;;;;;;;;;;;;;37.75;27.07;99170.94;5092902;28;19912;-37
2021/08/02 06:34:45;;;;;;;;;;;;;;;37.75;27.14;99168.94;5093141;28;19991;-37
2021/08/02 06:37:12;;;;;;;;;;;;;;;37.20;27.73;99163.09;5093222;28;20395;-37
2021/08/02 06:39:38;;;;;;;;;;;;;;;37.74;27.27;99155.50;5092828;28;19916;-37
2021/08/02 06:42:03;;;;;;;;;;;;;;;37.95;27.40;99160.94;5091689;28;19935;-37
2021/08/02 06:44:28;;;;;;;;;;;;;;;37.87;27.15;99153.03;5111375;28;19916;-38
2021/08/02 06:46:54;;;;;;;;;;;;;;;37.40;27.31;99153.16;5113552;28;19989;-37
2021/08/02 06:49:19;;;;;;;;;;;;;;;37.35;26.90;99142.47;5113433;28;20013;-38
2021/08/02 06:51:44;;;;;;;;;;;;;;;37.95;26.34;99168.50;5113622;28;19915;-37
2021/08/02 06:54:10;;;;;;;;;;;;;;;38.55;25.52;99154.72;5113467;28;19922;-38
2021/08/02 06:56:35;;;;;;;;;;;;;;;37.91;27.46;99149.06;5108655;28;19923;-37
2021/08/02 06:59:00;;;;;;;;;;;;;;;37.81;27.50;99158.22;5092672;28;19973;-37
2021/08/02 07:01:25;;;;;;;;;;;;;;;38.78;26.95;99145.81;5092730;28;19988;-37
2021/08/02 07:03:51;;;;;;;;;;;;;;;38.97;26.73;99150.03;5092311;28;20275;-38
2021/08/02 07:06:16;;;;;;;;;;;;;;;39.03;26.18;99153.97;5092767;28;19912;-38
2021/08/02 07:08:41;;;;;;;;;;;;;;;39.09;25.71;99147.56;5092496;28;19913;-38
2021/08/02 07:11:07;;;;;;;;;;;;;;;38.87;26.21;99151.72;5092468;28;19923;-38
2021/08/02 07:13:32;;;;;;;;;;;;;;;39.43;25.31;99151.59;5093801;28;19923;-38
2021/08/02 07:16:00;;;;;;;;;;;;;;;38.63;26.61;99147.91;5092900;28;20069;-38
2021/08/02 07:18:26;;;;;;;;;;;;;;;38.02;26.87;99153.78;5092549;28;19924;-41
2021/08/02 07:20:51;;;;;;;;;;;;;;;38.33;26.67;99150.06;5092041;28;20388;-38
2021/08/02 07:23:16;;;;;;;;;;;;;;;38.76;26.04;99148.22;5092723;28;20299;-38
2021/08/02 07:25:42;;;;;;;;;;;;;;;39.76;25.71;99143.72;5092240;28;19981;-38
2021/08/02 07:28:07;;;;;;;;;;;;;;;39.16;25.96;99145.94;5092685;28;20310;-49
2021/08/02 07:30:32;;;;;;;;;;;;;;;39.67;24.69;99147.78;5092991;28;19934;-49
2021/08/02 07:32:58;;;;;;;;;;;;;;;40.31;24.23;99139.03;5124982;27;20442;-48
2021/08/02 07:35:23;;;;;;;;;;;;;;;40.88;23.23;99149.38;5092598;28;19940;-50
2021/08/02 07:37:48;;;;;;;;;;;;;;;40.28;24.66;99139.91;5092460;28;20008;-37
2021/08/02 07:40:14;;;;;;;;;;;;;;;39.61;25.22;99141.09;5092419;28;19970;-37
2021/08/02 07:42:39;;;;;;;;;;;;;;;39.29;25.08;99156.13;5095566;28;20461;-37
2021/08/02 07:45:05;;;;;;;;;;;;;;;40.33;23.69;99142.22;5112657;28;20389;-37
2021/08/02 07:47:30;;;;;;;;;;;;;;;40.45;23.93;99142.44;5093078;28;19922;-39
2021/08/02 07:49:55;;;;;;;;;;;;;;;40.87;23.77;99145.00;5091782;28;19943;-37
2021/08/02 07:52:21;;;;;;;;;;;;;;;41.43;23.09;99144.41;5091064;28;19999;-37
2021/08/02 07:54:46;;;;;;;;;;;;;;;41.78;22.95;99142.97;5091960;28;20007;-39
2021/08/02 07:57:11;;;;;;;;;;;;;;;41.15;23.02;99140.94;5091393;28;19912;-37
2021/08/02 07:59:37;;;;;;;;;;;;;;;40.92;23.64;99141.72;5091263;28;19920;-38
2021/08/02 08:02:02;;;;;;;;;;;;;;;40.03;24.46;99141.81;5091259;28;19912;-38
2021/08/02 08:04:27;;;;;;;;;;;;;;;40.21;24.56;99136.00;5091482;28;19919;-38
2021/08/02 08:06:52;;;;;;;;;;;;;;;41.11;23.47;99133.81;5091954;28;20320;-38
2021/08/02 08:09:18;;;;;;;;;;;;;;;40.92;23.57;99135.34;5091548;28;19919;-38
2021/08/02 08:11:43;;;;;;;;;;;;;;;41.37;23.30;99135.75;5091302;28;19974;-37
2021/08/02 08:14:09;;;;;;;;;;;;;;;41.97;23.13;99129.41;5091152;28;19916;-38
2021/08/02 08:16:34;;;;;;;;;;;;;;;42.83;21.54;99135.06;5091140;28;19972;-38
2021/08/02 08:19:00;;;;;;;;;;;;;;;42.82;21.61;99133.47;5091494;28;19928;-39
2021/08/02 08:21:25;;;;;;;;;;;;;;;42.07;22.16;99119.25;5091385;28;19920;-38
2021/08/02 08:23:51;;;;;;;;;;;;;;;41.11;23.32;99117.88;5090715;28;19977;-38
2021/08/02 08:26:18;;;;;;;;;;;;;;;41.89;22.67;99128.78;5090935;28;19938;-38
2021/08/02 08:28:43;;;;;;;;;;;;;;;42.28;22.08;99124.34;5091270;28;19919;-39
2021/08/02 08:31:09;;;;;;;;;;;;;;;42.66;21.81;99121.06;5090890;28;20003;-38
2021/08/02 08:33:34;;;;;;;;;;;;;;;42.18;21.98;99120.56;5090717;28;20026;-38
2021/08/02 08:35:59;;;;;;;;;;;;;;;42.49;21.86;99113.91;5090795;28;19959;-39
2021/08/02 08:38:25;;;;;;;;;;;;;;;43.47;20.20;99127.78;5091418;28;19916;-38
2021/08/02 08:40:50;;;;;;;;;;;;;;;42.76;21.49;99110.84;5091010;28;20355;-38
2021/08/02 08:43:16;;;;;;;;;;;;;;;43.04;21.20;99106.53;5099011;28;19943;-39
2021/08/02 08:45:41;;;;;;;;;;;;;;;42.98;21.13;99101.94;5111411;28;19912;-39
2021/08/02 08:48:06;;;;;;;;;;;;;;;43.50;20.41;99100.91;5111771;28;19918;-38
2021/08/02 08:50:32;;;;;;;;;;;;;;;43.11;21.08;99097.97;5111175;28;20006;-39
2021/08/02 08:52:57;;;;;;;;;;;;;;;43.24;20.80;99094.41;5111185;28;19916;-39
2021/08/02 08:55:22;;;;;;;;;;;;;;;42.38;21.18;99091.75;5110865;28;20052;-37
2021/08/02 08:57:48;;;;;;;;;;;;;;;42.82;21.24;99086.69;5096175;28;19934;-38
2021/08/02 09:00:20;;;;;;;;;;;;;;;42.76;20.92;99075.28;5090994;28;19966;-38
2021/08/02 09:02:46;;;;;;;;;;;;;;;43.13;20.72;99077.94;5090880;28;19915;-39
2021/08/02 09:05:11;;;;;;;;;;;;;;;43.63;20.50;99072.94;5090110;28;19913;-39
2021/08/02 09:07:40;;;;;;;;;;;;;;;44.11;19.92;99071.13;5089399;28;19918;-38
2021/08/02 09:10:09;;;;;;;;;;;;;;;44.42;19.25;99065.72;5090545;28;20260;-38
2021/08/02 09:12:34;;;;;;;;;;;;;;;44.56;19.76;99064.50;5090007;28;19912;-38
2021/08/02 09:15:02;;;;;;;;;;;;;;;44.51;19.24;99056.63;5090208;28;19918;-39
2021/08/02 09:17:28;;;;;;;;;;;;;;;44.57;19.04;99056.84;5089989;28;19945;-38
2021/08/02 09:19:53;;;;;;;;;;;;;;;44.98;18.98;99052.25;5090615;28;19924;-38
2021/08/02 09:22:45;;;;;;;;;;;;;;;44.72;18.82;99048.72;5090643;28;19995;-38
2021/08/02 09:25:11;;;;;;;;;;;;;;;44.35;19.19;99048.34;5088927;28;20033;-38
2021/08/02 09:27:36;;;;;;;;;;;;;;;44.45;19.23;99055.63;5090189;28;20376;-38
2021/08/02 09:30:12;;;;;;;;;;;;;;;44.35;18.70;99051.94;5090296;28;19919;-38
2021/08/02 09:32:46;;;;;;;;;;;;;;;44.22;19.10;99051.94;5090075;28;20376;-38
2021/08/02 09:35:11;;;;;;;;;;;;;;;44.70;18.70;99041.53;5090310;28;20265;-39
2021/08/02 09:37:36;;;;;;;;;;;;;;;44.72;19.16;99043.91;5089896;28;19913;-38
2021/08/02 09:40:05;;;;;;;;;;;;;;;44.85;18.51;99046.66;5090071;28;19919;-39
2021/08/02 09:42:30;;;;;;;;;;;;;;;44.73;17.90;99039.06;5091695;28;19951;-39
2021/08/02 09:45:00;;;;;;;;;;;;;;;44.94;18.84;99034.78;5110619;28;20375;-39
2021/08/02 09:47:31;;;;;;;;;;;;;;;44.99;17.94;99031.38;5110277;28;20074;-38
2021/08/02 09:49:56;;;;;;;;;;;;;;;44.53;18.57;99030.97;5110628;28;20045;-39
2021/08/02 09:52:21;;;;;;;;;;;;;;;44.77;17.85;99034.13;5109182;28;20433;-38
2021/08/02 09:54:47;;;;;;;;;;;;;;;44.84;18.14;99029.06;5110460;28;20391;-38
2021/08/02 09:57:12;;;;;;;;;;;;;;;44.80;17.38;99024.78;5100480;28;19912;-39
2021/08/02 09:59:40;;;;;;;;;;;;;;;45.06;17.65;99011.47;5089562;28;20352;-38
2021/08/02 10:02:06;;;;;;;;;;;;;;;43.51;19.31;99022.09;5090207;28;19913;-39
2021/08/02 10:04:31;;;;;;;;;;;;;;;43.04;19.64;99017.00;5090022;28;19965;-38
2021/08/02 10:06:56;;;;;;;;;;;;;;;43.66;18.96;99018.84;5088403;28;20307;-38
2021/08/02 10:09:22;;;;;;;;;;;;;;;44.11;17.91;99017.88;5089385;28;19912;-38
2021/08/02 10:11:47;;;;;;;;;;;;;;;44.31;18.46;99006.44;5094343;28;19919;-39
2021/08/02 10:14:14;;;;;;;;;;;;;;;44.14;17.84;98990.97;5101556;28;20045;-38
2021/08/02 10:16:40;;;;;;;;;;;;;;;44.32;17.99;98999.56;5097032;28;19916;-38
2021/08/02 10:19:06;;;;;;;;;;;;;;;44.54;18.28;98996.84;5096930;28;19924;-38
2021/08/02 10:21:39;;;;;;;;;;;;;;;44.80;17.72;98997.56;5101543;28;19920;-38
2021/08/02 10:24:05;;;;;;;;;;;;;;;44.31;17.29;98996.00;5093653;28;19919;-38
2021/08/02 10:26:30;;;;;;;;;;;;;;;44.50;17.35;98987.78;5092622;28;19912;-38
2021/08/02 10:28:58;;;;;;;;;;;;;;;44.42;17.36;98995.63;5093022;28;19919;-37
2021/08/02 10:31:27;;;;;;;;;;;;;;;44.56;17.35;98988.00;5093457;28;19916;-38
2021/08/02 10:33:55;;;;;;;;;;;;;;;43.95;18.56;98984.34;5093222;28;19912;-38
2021/08/02 10:36:22;;;;;;;;;;;;;;;43.92;18.21;98981.22;5093222;28;19916;-38
2021/08/02 10:38:48;;;;;;;;;;;;;;;43.95;18.29;98984.34;5092919;28;19919;-38
2021/08/02 10:41:42;;;;;;;;;;;;;;;44.91;17.90;98977.53;5093449;28;19923;-38
2021/08/02 10:44:12;;;;;;;;;;;;;;;45.13;17.62;98985.94;5083625;28;19919;-38
2021/08/02 10:46:37;;;;;;;;;;;;;;;44.59;17.96;98970.25;5092927;28;20336;-38
2021/08/02 10:49:09;;;;;;;;;;;;;;;44.89;17.49;98974.41;5092637;28;19919;-38
2021/08/02 10:51:44;;;;;;;;;;;;;;;45.33;17.65;98959.56;5093055;28;19912;-38
2021/08/02 10:54:09;;;;;;;;;;;;;;;44.95;17.09;98968.97;5094499;28;19927;-38
2021/08/02 10:56:34;;;;;;;;;;;;;;;43.89;18.35;98944.94;5093057;28;19912;-38
2021/08/02 10:59:00;;;;;;;;;;;;;;;44.14;18.25;98965.75;5092501;28;19912;-39
2021/08/02 11:01:26;;;;;;;;;;;;;;;44.30;17.55;98963.56;5101477;28;19926;-38
2021/08/02 11:03:52;;;;;;;;;;;;;;;44.10;18.15;98963.88;5101195;28;19919;-38
2021/08/02 11:06:17;;;;;;;;;;;;;;;44.49;17.28;98956.13;5108520;28;19912;-38
2021/08/02 11:08:45;;;;;;;;;;;;;;;45.00;17.32;98957.97;5095984;28;19913;-38
2021/08/02 11:11:11;;;;;;;;;;;;;;;45.79;16.85;98952.16;5105957;28;19923;-38
2021/08/02 11:13:36;;;;;;;;;;;;;;;45.79;15.61;98949.34;5102251;28;19911;-38
2021/08/02 11:16:03;;;;;;;;;;;;;;;45.22;16.22;98949.53;5099238;28;19935;-38
2021/08/02 11:18:29;;;;;;;;;;;;;;;44.99;16.08;98953.56;5093162;28;19934;-38
2021/08/02 11:20:54;;;;;;;;;;;;;;;44.60;16.68;98941.75;5108321;28;20289;-38
2021/08/02 11:23:35;;;;;;;;;;;;;;;45.19;16.00;98941.22;5100249;28;19938;-39
2021/08/02 11:26:05;;;;;;;;;;;;;;;44.25;16.21;98933.34;5111388;28;19947;-38
2021/08/02 11:28:39;;;;;;;;;;;;;;;44.88;16.56;98927.94;5095556;28;20237;-38
2021/08/02 11:31:05;;;;;;;;;;;;;;;45.36;15.64;98928.56;5106682;28;19912;-38
2021/08/02 11:33:30;;;;;;;;;;;;;;;45.62;15.05;98928.31;5091744;28;19962;-38
2021/08/02 11:35:56;;;;;;;;;;;;;;;45.39;15.72;98919.22;5104878;28;19990;-38
2021/08/02 11:38:22;;;;;;;;;;;;;;;45.67;14.82;98919.31;5094829;28;19916;-38
2021/08/02 11:40:48;;;;;;;;;;;;;;;46.40;14.03;98918.69;5108889;28;20305;-38
2021/08/02 11:43:13;;;;;;;;;;;;;;;46.87;14.02;98918.69;5098275;28;19981;-39
2021/08/02 11:45:38;;;;;;;;;;;;;;;46.38;13.43;98921.19;5102544;28;19924;-38
2021/08/02 11:48:07;;;;;;;;;;;;;;;46.07;13.53;98915.69;5091762;28;19938;-39
2021/08/02 11:50:32;;;;;;;;;;;;;;;46.44;13.42;98910.09;5093979;28;19912;-38
2021/08/02 11:52:59;;;;;;;;;;;;;;;46.94;13.81;98910.69;5090600;28;19981;-37
2021/08/02 11:55:24;;;;;;;;;;;;;;;47.05;13.77;98913.03;5089622;28;19916;-40
2021/08/02 11:57:55;;;;;;;;;;;;;;;46.99;13.70;98900.81;5091792;28;19949;-39
2021/08/02 12:00:21;;;;;;;;;;;;;;;46.58;14.23;98895.41;5092079;28;19916;-37
2021/08/02 12:02:47;;;;;;;;;;;;;;;46.44;13.99;98898.84;5095136;28;19919;-38
2021/08/02 12:05:22;;;;;;;;;;;;;;;45.70;13.92;98893.13;5090134;28;20368;-38
2021/08/02 12:07:47;;;;;;;;;;;;;;;45.96;14.25;98893.63;5091288;28;19912;-38
2021/08/02 12:10:15;;;;;;;;;;;;;;;45.66;13.82;98893.25;5106259;28;20276;-38
2021/08/02 12:12:40;;;;;;;;;;;;;;;45.58;14.30;98885.56;5091854;28;19923;-37
2021/08/02 12:15:06;;;;;;;;;;;;;;;46.14;14.01;98890.09;5090946;28;19912;-38
2021/08/02 12:17:31;;;;;;;;;;;;;;;46.12;13.62;98891.81;5100392;28;20328;-38
2021/08/02 12:19:57;;;;;;;;;;;;;;;45.93;13.77;98880.53;5097474;28;20303;-38
2021/08/02 12:22:22;;;;;;;;;;;;;;;45.91;14.25;98877.41;5107552;28;20351;-38
2021/08/02 12:24:54;;;;;;;;;;;;;;;46.03;13.88;98872.88;5094530;28;20009;-39
2021/08/02 12:27:19;;;;;;;;;;;;;;;45.18;14.33;98869.47;5104456;28;20318;-38
2021/08/02 12:29:57;;;;;;;;;;;;;;;45.57;14.09;98856.69;5092705;28;19912;-38
2021/08/02 12:32:33;;;;;;;;;;;;;;;45.36;13.68;98855.56;5107100;28;20021;-38
2021/08/02 12:34:58;;;;;;;;;;;;;;;45.46;13.21;98850.75;5087782;28;20400;-39
2021/08/02 12:37:23;;;;;;;;;;;;;;;45.07;13.25;98853.09;5099189;28;19912;-38
2021/08/02 12:39:48;;;;;;;;;;;;;;;45.11;14.18;98850.09;5100740;28;19926;-38
2021/08/02 12:42:14;;;;;;;;;;;;;;;46.08;13.55;98857.44;5098843;28;19916;-38